Time;durP1;ratioP1;P1;durP2;ratioP2;P2;SDS_P1;SDS_P2;PMS_P1;PMS_P2;Temp;Humidity;BMP_temperature;BMP_pressure;BME280_temperature;BME280_humidity;BME280_pressure;Samples;Min_cycle;Max_cycle;Signal;HPM_P1;HPM_P2
2021/06/22 00:00:23;;;;;;;9.57;8.50;;;;;;;23.51;100.00;100732.97;4847306;29;20032;-77
2021/06/22 00:03:09;;;;;;;13.20;9.13;;;;;;;23.71;100.00;100724.38;4845640;29;20052;-78
2021/06/22 00:05:55;;;;;;;10.43;9.32;;;;;;;23.47;100.00;100726.13;4847094;29;20037;-77
2021/06/22 00:08:41;;;;;;;12.98;10.40;;;;;;;23.59;100.00;100739.50;4847452;29;20507;-78
2021/06/22 00:11:26;;;;;;;12.02;10.75;;;;;;;23.61;100.00;100734.00;4845741;29;20033;-77
2021/06/22 00:14:12;;;;;;;16.52;10.82;;;;;;;23.30;100.00;100751.34;4845959;29;20022;-77
2021/06/22 00:16:58;;;;;;;14.15;10.15;;;;;;;23.36;100.00;100745.59;4845868;29;20106;-77
2021/06/22 00:19:44;;;;;;;11.52;8.70;;;;;;;23.28;100.00;100755.94;4846131;29;20045;-77
2021/06/22 00:22:29;;;;;;;9.85;8.60;;;;;;;23.16;100.00;100746.06;4846872;29;20034;-77
2021/06/22 00:25:17;;;;;;;10.07;8.05;;;;;;;23.21;100.00;100742.16;4846634;29;20065;-77
2021/06/22 00:28:03;;;;;;;11.55;8.10;;;;;;;23.35;100.00;100739.38;4845512;29;20434;-77
2021/06/22 00:30:49;;;;;;;10.90;9.05;;;;;;;23.16;100.00;100738.06;4845121;29;20116;-78
2021/06/22 00:33:37;;;;;;;11.85;8.30;;;;;;;22.96;100.00;100736.75;4846054;29;20044;-77
2021/06/22 00:36:22;;;;;;;10.30;9.10;;;;;;;22.88;100.00;100738.22;4845656;29;20037;-78
2021/06/22 00:39:08;;;;;;;11.23;8.52;;;;;;;22.78;100.00;100735.31;4845551;29;20057;-78
2021/06/22 00:41:54;;;;;;;10.60;8.60;;;;;;;22.91;100.00;100730.84;4846707;29;20041;-78
2021/06/22 00:44:47;;;;;;;13.48;9.27;;;;;;;23.19;100.00;100724.47;4845731;29;20030;-77
2021/06/22 00:47:33;;;;;;;12.68;8.45;;;;;;;22.68;100.00;100728.88;4844952;29;20030;-78
2021/06/22 00:50:19;;;;;;;10.15;8.63;;;;;;;22.47;100.00;100729.44;4846314;29;20041;-78
2021/06/22 00:53:08;;;;;;;9.60;8.48;;;;;;;22.98;100.00;100721.44;4845851;29;20057;-78
2021/06/22 00:55:55;;;;;;;10.10;8.85;;;;;;;22.74;100.00;100715.09;4844829;29;20034;-78
2021/06/22 00:58:42;;;;;;;10.07;9.00;;;;;;;22.53;100.00;100705.88;4844919;29;20034;-77
2021/06/22 01:01:29;;;;;;;11.65;8.80;;;;;;;22.78;100.00;100710.41;4844974;29;20117;-78
2021/06/22 01:04:15;;;;;;;12.65;9.60;;;;;;;22.85;100.00;100709.03;4844881;29;20045;-78
2021/06/22 01:07:02;;;;;;;12.32;9.43;;;;;;;22.55;100.00;100700.44;4846134;29;20030;-78
2021/06/22 01:09:48;;;;;;;11.40;9.55;;;;;;;22.71;100.00;100698.44;4846027;29;20049;-78
2021/06/22 01:12:34;;;;;;;14.27;9.40;;;;;;;22.45;100.00;100692.13;4844913;29;20121;-78
2021/06/22 01:15:26;;;;;;;12.57;9.70;;;;;;;22.66;100.00;100688.03;4846306;29;20030;-78
2021/06/22 01:18:12;;;;;;;13.70;9.93;;;;;;;22.38;100.00;100689.97;4844520;29;20456;-78
2021/06/22 01:20:58;;;;;;;14.25;10.13;;;;;;;22.63;100.00;100682.91;4846102;29;20041;-78
2021/06/22 01:23:44;;;;;;;12.88;10.18;;;;;;;22.84;100.00;100678.81;4845053;29;20117;-78
2021/06/22 01:26:30;;;;;;;10.75;9.65;;;;;;;22.70;100.00;100670.84;4844310;29;20041;-78
2021/06/22 01:29:16;;;;;;;12.60;9.90;;;;;;;22.72;100.00;100673.44;4844006;29;20069;-78
2021/06/22 01:32:05;;;;;;;13.18;9.98;;;;;;;22.79;100.00;100667.53;4844773;29;20045;-78
2021/06/22 01:34:56;;;;;;;11.88;9.65;;;;;;;22.49;100.00;100672.31;4843970;29;20471;-78
2021/06/22 01:37:56;;;;;;;12.57;10.30;;;;;;;22.63;100.00;100666.88;4844618;29;20030;-78
2021/06/22 02:52:10;;;;;;;21.25;14.23;;;;;;;22.17;100.00;100686.03;5432696;23;20062;-76
2021/06/22 02:54:56;;;;;;;26.10;16.45;;;;;;;22.28;100.00;100695.06;4863047;29;20048;-76
2021/06/22 02:57:41;;;;;;;22.00;15.02;;;;;;;22.13;100.00;100697.88;4862471;29;20029;-77
2021/06/22 03:00:30;;;;;;;20.73;13.98;;;;;;;22.06;100.00;100694.75;4862683;29;20112;-77
2021/06/22 03:03:16;;;;;;;20.30;14.80;;;;;;;21.99;100.00;100701.41;4848646;29;20033;-76
2021/06/22 03:06:02;;;;;;;18.40;13.40;;;;;;;22.22;100.00;100706.13;4848942;29;20025;-77
2021/06/22 03:08:47;;;;;;;19.92;13.30;;;;;;;22.05;100.00;100708.19;4862948;29;20363;-78
2021/06/22 03:11:33;;;;;;;19.45;13.50;;;;;;;22.24;100.00;100714.91;4862412;29;20025;-77
2021/06/22 03:14:20;;;;;;;20.75;13.52;;;;;;;22.25;100.00;100711.28;4861755;29;20055;-78
2021/06/22 03:17:06;;;;;;;19.35;14.60;;;;;;;22.23;100.00;100723.00;4861654;29;20044;-78
2021/06/22 03:19:52;;;;;;;23.27;14.63;;;;;;;22.05;100.00;100719.72;4862107;29;20453;-78
2021/06/22 03:22:39;;;;;;;14.90;13.32;;;;;;;22.13;100.00;100721.88;4861538;29;20037;-77
2021/06/22 03:25:25;;;;;;;14.75;12.52;;;;;;;21.82;100.00;100725.66;4848239;29;20038;-78
2021/06/22 03:28:11;;;;;;;17.23;11.38;;;;;;;22.10;100.00;100738.13;4861747;29;20101;-78
2021/06/22 03:30:57;;;;;;;15.02;12.07;;;;;;;22.10;100.00;100738.13;4862069;29;20034;-78
2021/06/22 03:33:42;;;;;;;14.95;12.02;;;;;;;21.94;100.00;100753.41;4864636;29;20037;-77
2021/06/22 03:36:28;;;;;;;16.45;12.07;;;;;;;22.03;100.00;100750.13;4865488;29;20113;-77
2021/06/22 03:39:14;;;;;;;14.95;10.90;;;;;;;22.30;100.00;100743.84;4865173;29;20060;-78
2021/06/22 03:42:00;;;;;;;14.88;11.27;;;;;;;22.21;100.00;100744.47;4852708;29;20033;-78
2021/06/22 03:44:46;;;;;;;13.88;11.90;;;;;;;22.42;100.00;100751.06;4851332;29;20033;-77
2021/06/22 03:47:32;;;;;;;15.05;11.13;;;;;;;22.60;100.00;100757.91;4851633;29;20040;-77
2021/06/22 03:50:18;;;;;;;14.82;11.07;;;;;;;22.69;100.00;100743.94;4852604;29;20033;-78
2021/06/22 03:53:04;;;;;;;14.13;11.90;;;;;;;22.03;100.00;100750.13;4850823;29;20049;-78
2021/06/22 03:55:50;;;;;;;14.30;12.38;;;;;;;22.33;100.00;100748.13;4865017;29;20047;-78
2021/06/22 03:58:36;;;;;;;18.33;13.90;;;;;;;22.30;100.00;100748.38;4864639;29;20093;-78
2021/06/22 04:01:22;;;;;;;18.98;15.40;;;;;;;22.44;100.00;100743.84;4851171;29;20135;-77
2021/06/22 04:04:08;;;;;;;19.90;16.05;;;;;;;22.37;100.00;100741.63;4864651;29;20049;-78
2021/06/22 04:06:53;;;;;;;24.45;17.65;;;;;;;22.55;100.00;100752.00;4864761;29;20026;-78
2021/06/22 04:09:39;;;;;;;28.33;17.35;;;;;;;22.53;100.00;100751.25;4864665;29;20030;-77
2021/06/22 04:12:25;;;;;;;23.05;16.70;;;;;;;22.68;100.00;100752.06;4864574;29;20029;-77
2021/06/22 04:15:11;;;;;;;26.92;18.05;;;;;;;22.75;100.00;100762.22;4864310;29;20356;-78
2021/06/22 04:18:07;;;;;;;21.05;16.48;;;;;;;22.75;100.00;100759.56;4864418;29;20450;-77
2021/06/22 04:20:53;;;;;;;21.08;17.10;;;;;;;22.94;100.00;100764.50;4864174;29;20033;-78
2021/06/22 04:23:38;;;;;;;21.67;16.92;;;;;;;22.99;100.00;100768.59;4851528;29;20030;-78
2021/06/22 04:26:24;;;;;;;19.00;16.63;;;;;;;22.74;100.00;100781.88;4864157;29;20030;-78
2021/06/22 04:29:10;;;;;;;19.75;16.55;;;;;;;22.99;100.00;100771.25;4864056;29;20105;-78
2021/06/22 04:31:56;;;;;;;17.25;15.35;;;;;;;23.16;100.00;100770.97;4850766;29;20035;-78
2021/06/22 04:34:42;;;;;;;22.98;15.40;;;;;;;23.10;100.00;100770.53;4863794;29;20043;-78
2021/06/22 04:37:28;;;;;;;18.02;14.68;;;;;;;23.23;100.00;100769.63;4864295;29;20359;-79
2021/06/22 04:40:14;;;;;;;15.70;13.25;;;;;;;22.96;100.00;100781.31;4863821;29;20029;-79
2021/06/22 04:43:01;;;;;;;17.80;13.25;;;;;;;22.82;100.00;100782.22;4863974;29;20064;-77
2021/06/22 04:45:46;;;;;;;23.83;13.02;;;;;;;22.79;100.00;100771.75;4850704;29;20037;-77
2021/06/22 04:48:32;;;;;;;19.05;11.55;;;;;;;22.94;100.00;100769.84;4851567;29;20030;-76
2021/06/22 04:51:18;;;;;;;16.42;12.27;;;;;;;23.25;100.00;100775.75;4851614;29;20116;-77
2021/06/22 04:54:04;;;;;;;18.05;12.27;;;;;;;22.80;100.00;100784.16;4863708;29;20037;-77
2021/06/22 04:56:50;;;;;;;19.77;12.82;;;;;;;22.43;100.00;100784.81;4850126;29;20048;-77
2021/06/22 04:59:36;;;;;;;18.98;14.00;;;;;;;22.68;100.00;100787.66;4851153;29;20029;-80
2021/06/22 05:02:22;;;;;;;18.23;13.73;;;;;;;22.95;100.00;100792.97;4863471;29;20076;-77
2021/06/22 05:05:10;;;;;;;19.70;13.07;;;;;;;23.20;100.00;100785.03;4863482;29;20375;-76
2021/06/22 05:07:56;;;;;;;19.50;14.13;;;;;;;23.42;100.00;100774.56;4863768;29;20029;-78
2021/06/22 05:10:41;;;;;;;23.95;14.75;;;;;;;22.67;100.00;100777.91;4866846;29;20053;-76
2021/06/22 05:13:27;;;;;;;19.02;13.02;;;;;;;23.16;100.00;100781.66;4868430;29;20446;-76
2021/06/22 05:16:15;;;;;;;23.10;12.88;;;;;;;23.52;100.00;100780.13;4853115;29;20033;-76
2021/06/22 05:19:00;;;;;;;17.27;12.27;;;;;;;23.65;100.00;100783.66;4863603;29;20116;-78
2021/06/22 05:21:46;;;;;;;15.77;13.48;;;;;;;23.70;100.00;100781.53;4863478;29;20074;-77
2021/06/22 05:24:32;;;;;;;18.35;12.00;;;;;;;23.72;100.00;100790.28;4864928;29;20088;-77
2021/06/22 05:27:18;;;;;;;16.92;11.02;;;;;;;23.80;100.00;100799.50;4865530;29;20113;-77
2021/06/22 05:30:05;;;;;;;15.27;11.02;;;;;;;23.66;100.00;100807.63;4851025;29;20040;-77
2021/06/22 05:32:50;;;;;;;16.88;10.75;;;;;;;23.49;100.00;100802.59;4864519;29;20029;-78
2021/06/22 05:35:36;;;;;;;14.95;10.40;;;;;;;23.90;100.00;100799.72;4863123;29;20067;-77
2021/06/22 05:38:22;;;;;;;14.57;10.23;;;;;;;24.25;100.00;100798.06;4863538;29;20041;-78
2021/06/22 05:41:08;;;;;;;13.07;10.10;;;;;;;23.91;100.00;100799.59;4863423;29;20029;-77
2021/06/22 05:43:53;;;;;;;16.25;10.63;;;;;;;24.30;100.00;100812.81;4862846;29;20105;-78
2021/06/22 05:46:39;;;;;;;16.58;10.88;;;;;;;24.20;100.00;100809.13;4862609;29;20037;-77
2021/06/22 05:49:25;;;;;;;17.25;10.75;;;;;;;24.23;100.00;100821.44;4863240;29;20370;-77
2021/06/22 05:52:11;;;;;;;17.50;10.82;;;;;;;23.72;100.00;100833.09;4863015;29;20072;-78
2021/06/22 05:54:56;;;;;;;15.07;10.68;;;;;;;24.16;100.00;100830.84;4862946;29;20065;-78
2021/06/22 05:57:48;;;;;;;16.88;10.77;;;;;;;24.41;100.00;100823.63;4837455;29;20038;-77
2021/06/22 06:00:34;;;;;;;19.58;12.82;;;;;;;23.85;100.00;100833.94;4849069;29;20112;-77
2021/06/22 06:03:20;;;;;;;17.10;12.23;;;;;;;23.87;100.00;100832.03;4848952;29;20096;-77
2021/06/22 06:06:06;;;;;;;17.52;11.02;;;;;;;24.35;100.00;100829.41;4862371;29;20029;-77
2021/06/22 06:08:51;;;;;;;17.13;11.52;;;;;;;24.86;100.00;100827.44;4862616;29;20175;-77
2021/06/22 06:11:37;;;;;;;19.35;12.00;;;;;;;24.95;100.00;100824.09;4862305;29;20041;-77
2021/06/22 06:14:23;;;;;;;19.02;12.40;;;;;;;24.91;100.00;100827.97;4849241;29;20062;-78
2021/06/22 06:17:09;;;;;;;17.73;11.18;;;;;;;25.28;100.00;100827.78;4862169;29;20033;-78
2021/06/22 06:19:55;;;;;;;15.13;11.73;;;;;;;25.22;100.00;100832.72;4862347;29;20040;-78
2021/06/22 06:22:42;;;;;;;14.75;10.98;;;;;;;25.40;100.00;100831.34;4862142;29;20033;-77
2021/06/22 06:25:31;;;;;;;18.70;10.70;;;;;;;25.09;100.00;100821.22;4862257;29;20026;-77
2021/06/22 06:28:22;;;;;;;17.33;10.52;;;;;;;25.24;100.00;100833.47;4848638;29;20029;-78
2021/06/22 06:31:08;;;;;;;16.58;10.70;;;;;;;25.64;100.00;100834.84;4849083;29;20044;-76
2021/06/22 06:33:53;;;;;;;15.20;11.10;;;;;;;25.66;100.00;100831.06;4848751;29;20041;-76
2021/06/22 06:36:39;;;;;;;13.10;10.82;;;;;;;25.72;100.00;100827.88;4848966;29;20033;-76
2021/06/22 06:39:25;;;;;;;16.63;11.13;;;;;;;25.76;100.00;100829.34;4862333;29;20510;-77
2021/06/22 06:42:11;;;;;;;16.48;12.68;;;;;;;25.87;100.00;100825.81;4849812;29;20075;-78
2021/06/22 06:44:56;;;;;;;15.07;10.95;;;;;;;26.44;100.00;100821.22;4849928;29;20037;-78
2021/06/22 06:47:42;;;;;;;17.55;10.48;;;;;;;26.48;100.00;100822.66;4862120;29;20033;-77
2021/06/22 06:50:28;;;;;;;20.02;10.93;;;;;;;26.61;100.00;100826.09;4862444;29;20052;-78
2021/06/22 06:53:14;;;;;;;14.23;9.13;;;;;;;26.70;100.00;100817.25;4861492;29;20095;-77
2021/06/22 06:56:00;;;;;;;17.17;9.57;;;;;;;26.54;100.00;100814.97;4863716;29;20052;-77
2021/06/22 06:58:46;;;;;;;13.68;9.27;;;;;;;26.38;100.00;100810.94;4863470;29;20033;-78
2021/06/22 07:01:32;;;;;;;12.32;8.25;;;;;;;26.98;100.00;100811.31;4862937;29;20044;-77
2021/06/22 07:04:18;;;;;;;11.63;9.25;;;;;;;26.68;100.00;100814.69;4861764;29;20125;-78
2021/06/22 07:07:04;;;;;;;14.32;8.77;;;;;;;26.46;100.00;100809.34;4850472;29;20041;-78
2021/06/22 07:09:50;;;;;;;13.65;8.00;;;;;;;26.64;100.00;100812.41;4852627;29;20025;-78
2021/06/22 07:12:36;;;;;;;12.35;7.80;;;;;;;26.73;100.00;100814.31;4852144;29;20034;-77
2021/06/22 07:15:22;;;;;;;14.77;7.50;;;;;;;26.86;100.00;100818.56;4852154;29;20045;-76
2021/06/22 07:18:08;;;;;;;10.48;7.22;;;;;;;27.31;100.00;100821.94;4851738;29;20112;-77
2021/06/22 07:20:53;;;;;;;9.85;7.50;;;;;;;27.31;100.00;100819.25;4864659;29;20404;-77
2021/06/22 07:23:40;;;;;;;14.15;8.98;;;;;;;27.67;100.00;100818.78;4865665;29;20050;-76
2021/06/22 07:26:25;;;;;;;13.38;8.60;;;;;;;27.45;100.00;100821.63;4865756;29;20097;-77
2021/06/22 07:29:11;;;;;;;14.05;8.95;;;;;;;27.77;100.00;100821.53;4851730;29;20183;-78
2021/06/22 07:31:57;;;;;;;9.85;7.93;;;;;;;28.26;100.00;100822.50;4865653;29;20439;-76
2021/06/22 07:34:43;;;;;;;12.13;7.80;;;;;;;28.79;100.00;100828.47;4865002;29;20044;-76
2021/06/22 07:37:29;;;;;;;10.80;7.22;;;;;;;29.17;100.00;100826.69;4851747;29;20041;-77
2021/06/22 07:40:16;;;;;;;12.63;6.93;;;;;;;29.26;100.00;100820.44;4866569;29;20048;-76
2021/06/22 07:43:02;;;;;;;9.32;6.47;;;;;;;29.40;100.00;100813.72;4867010;29;20026;-77
2021/06/22 07:45:48;;;;;;;17.88;6.72;;;;;;;29.63;100.00;100820.56;4850963;29;20423;-76
2021/06/22 07:48:34;;;;;;;8.27;5.43;;;;;;;29.03;100.00;100815.47;4865111;29;20439;-76
2021/06/22 07:51:20;;;;;;;5.35;4.40;;;;;;;28.98;100.00;100804.22;4851297;29;20039;-76
2021/06/22 07:54:05;;;;;;;6.22;4.53;;;;;;;29.00;100.00;100803.13;4864127;29;20523;-77
2021/06/22 07:56:51;;;;;;;8.98;5.45;;;;;;;28.69;100.00;100797.97;4864681;29;20034;-77
2021/06/22 07:59:37;;;;;;;5.38;4.82;;;;;;;28.82;100.00;100801.22;4851788;29;20051;-76
2021/06/22 08:02:26;;;;;;;5.63;4.65;;;;;;;28.98;100.00;100810.47;4854147;29;20052;-76
2021/06/22 08:05:12;;;;;;;5.57;4.65;;;;;;;29.16;100.00;100808.78;4865984;29;20100;-77
2021/06/22 08:07:58;;;;;;;8.20;4.00;;;;;;;29.23;100.00;100804.53;4866399;29;20040;-76
2021/06/22 08:10:45;;;;;;;5.50;4.40;;;;;;;29.43;100.00;100810.75;4864325;29;20479;-77
2021/06/22 08:13:31;;;;;;;5.97;4.07;;;;;;;29.86;100.00;100811.94;4851974;29;20033;-76
2021/06/22 08:16:17;;;;;;;6.88;4.30;;;;;;;29.82;100.00;100809.72;4864983;29;20037;-76
2021/06/22 08:19:03;;;;;;;4.80;4.20;;;;;;;30.45;100.00;100808.88;4866147;29;20026;-76
2021/06/22 08:21:49;;;;;;;4.47;3.80;;;;;;;30.23;100.00;100806.59;4864045;29;20104;-76
2021/06/22 08:24:35;;;;;;;6.80;4.70;;;;;;;30.19;100.00;100811.44;4850712;29;20188;-76
2021/06/22 08:27:21;;;;;;;5.95;4.43;;;;;;;29.41;100.00;100810.91;4851460;29;20029;-76
2021/06/22 08:30:07;;;;;;;7.05;4.22;;;;;;;29.72;100.00;100815.13;4864414;29;20411;-76
2021/06/22 08:32:53;;;;;;;4.97;4.30;;;;;;;30.02;100.00;100811.34;4863785;29;20037;-76
2021/06/22 08:35:40;;;;;;;5.00;4.50;;;;;;;30.38;100.00;100816.72;4850447;29;20029;-76
2021/06/22 08:38:26;;;;;;;4.15;3.50;;;;;;;30.47;100.00;100817.69;4864202;29;20033;-76
2021/06/22 08:41:13;;;;;;;4.13;3.42;;;;;;;30.26;100.00;100820.63;4850653;29;20044;-76
2021/06/22 08:44:03;;;;;;;4.50;3.70;;;;;;;30.45;100.00;100822.38;4851800;29;20451;-75
2021/06/22 08:46:50;;;;;;;12.93;4.20;;;;;;;30.80;100.00;100815.25;4864111;29;20041;-76
2021/06/22 08:49:37;;;;;;;4.97;4.47;;;;;;;30.72;100.00;100819.69;4865516;29;20375;-76
2021/06/22 08:52:30;;;;;;;7.35;4.75;;;;;;;30.73;100.00;100824.09;4863300;29;20391;-75
2021/06/22 08:55:38;;;;;;;7.65;3.92;;;;;;;30.39;100.00;100821.16;4863063;29;20404;-76
2021/06/22 08:58:23;;;;;;;6.40;5.80;;;;;;;30.37;100.00;100822.28;4865249;29;20072;-77
2021/06/22 09:01:09;;;;;;;5.20;3.78;;;;;;;30.74;100.00;100828.53;4865163;29;20045;-77
2021/06/22 09:03:55;;;;;;;6.72;4.10;;;;;;;30.73;100.00;100824.97;4849956;29;20036;-77
2021/06/22 09:06:42;;;;;;;4.50;3.97;;;;;;;31.33;100.00;100827.94;4862939;29;20033;-77
2021/06/22 09:09:38;;;;;;;5.05;4.35;;;;;;;30.76;100.00;100831.91;4863065;29;20152;-76
2021/06/22 09:12:26;;;;;;;4.85;4.05;;;;;;;31.00;100.00;100834.88;4850940;29;20498;-77
2021/06/22 09:15:21;;;;;;;4.90;4.38;;;;;;;31.20;100.00;100837.28;4864731;29;20064;-78
2021/06/22 09:18:25;;;;;;;6.85;4.75;;;;;;;30.89;100.00;100833.25;4863417;29;20474;-77
2021/06/22 09:21:23;;;;;;;4.80;4.32;;;;;;;30.87;100.00;100837.94;4849576;29;20037;-78
2021/06/22 09:24:22;;;;;;;6.13;4.60;;;;;;;31.38;100.00;100841.88;4864158;29;20029;-77
2021/06/22 09:27:08;;;;;;;4.57;4.15;;;;;;;31.49;100.00;100852.47;4864697;29;20459;-78
2021/06/22 09:29:54;;;;;;;4.85;4.30;;;;;;;31.61;100.00;100849.31;4863361;29;20041;-76
2021/06/22 09:32:41;;;;;;;8.55;4.70;;;;;;;31.52;100.00;100841.28;4850634;29;20037;-76
2021/06/22 09:35:27;;;;;;;6.97;4.60;;;;;;;31.76;100.00;100845.03;4864329;29;20340;-76
2021/06/22 09:38:13;;;;;;;8.52;4.80;;;;;;;30.74;100.00;100842.88;4850205;29;20133;-78
2021/06/22 09:41:22;;;;;;;7.47;4.63;;;;;;;31.31;100.00;100852.47;4862726;29;20048;-76
2021/06/22 09:44:43;;;;;;;5.95;4.65;;;;;;;30.95;100.00;100846.16;4864243;29;20412;-77
2021/06/22 09:47:31;;;;;;;4.72;4.32;;;;;;;31.04;100.00;100847.97;4863289;29;20049;-75
2021/06/22 09:50:38;;;;;;;5.95;4.80;;;;;;;31.52;100.00;100850.28;4863488;29;20105;-76
2021/06/22 09:53:29;;;;;;;5.68;4.90;;;;;;;31.51;100.00;100835.03;4845988;29;20049;-77
2021/06/22 09:56:25;;;;;;;6.13;4.65;;;;;;;31.69;100.00;100838.53;4844153;29;20026;-77
2021/06/22 09:59:11;;;;;;;5.38;4.80;;;;;;;31.29;100.00;100836.38;4830752;29;20041;-77
2021/06/22 10:02:10;;;;;;;5.93;4.80;;;;;;;31.68;100.00;100834.16;4846210;29;20121;-77
2021/06/22 10:04:58;;;;;;;6.13;4.75;;;;;;;31.99;100.00;100823.69;4844893;29;20040;-77
2021/06/22 10:07:44;;;;;;;6.88;4.57;;;;;;;31.90;100.00;100824.66;4844658;29;20030;-77
2021/06/22 10:10:40;;;;;;;9.10;7.00;;;;;;;31.63;100.00;100824.78;4831733;29;20030;-77
2021/06/22 10:13:41;;;;;;;8.95;6.22;;;;;;;31.46;100.00;100818.38;4831568;29;20098;-76
2021/06/22 10:16:30;;;;;;;6.75;6.05;;;;;;;31.52;100.00;100814.19;4831784;29;20475;-77
2021/06/22 10:19:16;;;;;;;7.97;5.20;;;;;;;31.75;100.00;100818.09;4846113;29;20034;-76
2021/06/22 10:22:05;;;;;;;9.98;6.55;;;;;;;31.49;100.00;100818.09;4844653;29;20042;-77
2021/06/22 10:24:51;;;;;;;6.68;4.60;;;;;;;31.32;100.00;100824.38;4845867;29;20065;-76
2021/06/22 10:27:37;;;;;;;6.80;4.93;;;;;;;31.88;100.00;100815.84;4844151;29;20030;-76
2021/06/22 10:30:23;;;;;;;6.47;5.53;;;;;;;32.04;100.00;100814.06;4831480;29;20057;-78
2021/06/22 10:33:09;;;;;;;7.25;5.13;;;;;;;31.56;98.45;100818.28;4831124;29;20353;-77
2021/06/22 10:35:55;;;;;;;8.27;5.03;;;;;;;32.14;98.65;100813.97;4844841;29;20021;-77
2021/06/22 10:38:41;;;;;;;7.32;5.38;;;;;;;31.83;100.00;100810.06;4844219;29;20368;-77
2021/06/22 10:41:34;;;;;;;7.25;5.13;;;;;;;31.43;100.00;100808.72;4845021;29;20037;-76
2021/06/22 10:44:27;;;;;;;8.57;5.90;;;;;;;31.39;100.00;100804.63;4844248;29;20478;-75
2021/06/22 10:47:27;;;;;;;9.27;6.32;;;;;;;31.38;100.00;100801.25;4843791;29;20044;-76
2021/06/22 10:50:21;;;;;;;7.72;5.38;;;;;;;31.61;100.00;100802.44;4844503;29;20102;-76
2021/06/22 10:53:08;;;;;;;7.22;5.45;;;;;;;32.08;100.00;100798.31;4846278;29;20120;-76
2021/06/22 10:55:56;;;;;;;10.27;5.60;;;;;;;32.00;100.00;100790.16;4848526;29;20029;-77
2021/06/22 10:59:20;;;;;;;7.05;5.55;;;;;;;31.86;100.00;100807.03;4862291;29;20053;-77
2021/06/22 11:02:07;;;;;;;8.95;5.22;;;;;;;31.83;100.00;100810.06;4862394;29;20430;-77
2021/06/22 11:05:15;;;;;;;8.90;5.57;;;;;;;31.86;100.00;100802.44;4862335;29;20102;-78
2021/06/22 11:08:13;;;;;;;6.63;5.60;;;;;;;32.07;100.00;100796.63;4849095;29;20085;-77
2021/06/22 11:10:59;;;;;;;8.30;5.97;;;;;;;31.99;100.00;100797.44;4848157;29;20037;-76
2021/06/22 11:13:50;;;;;;;6.22;5.18;;;;;;;31.79;100.00;100797.84;4861864;29;20026;-75
2021/06/22 11:16:35;;;;;;;5.43;4.90;;;;;;;32.12;100.00;100788.84;4848262;29;20469;-75
2021/06/22 11:19:22;;;;;;;8.57;5.68;;;;;;;32.07;100.00;100792.06;4861822;29;20403;-76
2021/06/22 11:22:07;;;;;;;8.43;6.53;;;;;;;31.66;100.00;100798.22;4861501;29;20364;-76
2021/06/22 11:24:59;;;;;;;6.28;5.07;;;;;;;32.09;98.65;100781.03;4861991;29;20466;-76
2021/06/22 11:28:04;;;;;;;6.22;5.25;;;;;;;32.31;100.00;100775.06;4861968;29;20030;-75
2021/06/22 11:31:00;;;;;;;5.68;4.63;;;;;;;31.82;100.00;100765.00;4849992;29;20087;-76
2021/06/22 11:33:46;;;;;;;7.45;5.28;;;;;;;32.49;100.00;100767.66;4849316;29;20519;-76
2021/06/22 11:36:33;;;;;;;9.02;4.80;;;;;;;32.28;100.00;100778.06;4850609;29;20033;-76
2021/06/22 11:39:22;;;;;;;7.88;4.57;;;;;;;32.25;100.00;100762.97;4849307;29;20113;-76
2021/06/22 11:42:08;;;;;;;6.47;4.80;;;;;;;32.43;100.00;100758.34;4848848;29;20151;-75
2021/06/22 11:45:17;;;;;;;8.43;6.03;;;;;;;31.88;100.00;100756.19;4863457;29;20375;-76
2021/06/22 11:48:04;;;;;;;19.58;14.43;;;;;;;31.95;100.00;100758.13;4863281;29;20120;-75
2021/06/22 11:50:50;;;;;;;7.50;5.10;;;;;;;32.57;100.00;100757.69;4850251;29;20040;-76
2021/06/22 11:53:35;;;;;;;5.65;4.53;;;;;;;31.84;100.00;100758.41;4851697;29;20060;-75
2021/06/22 11:56:21;;;;;;;6.95;4.80;;;;;;;31.20;100.00;100747.06;4865724;29;20026;-75
2021/06/22 11:59:07;;;;;;;6.03;4.93;;;;;;;32.15;100.00;100742.44;4865141;29;20029;-75
2021/06/22 12:01:53;;;;;;;8.43;5.00;;;;;;;32.40;100.00;100744.25;4866434;29;20029;-76
2021/06/22 12:04:40;;;;;;;10.35;5.13;;;;;;;32.23;100.00;100739.75;4864773;29;20105;-76
2021/06/22 12:07:26;;;;;;;6.07;5.07;;;;;;;32.01;100.00;100743.06;4852176;29;20429;-76
2021/06/22 12:10:13;;;;;;;7.55;4.88;;;;;;;32.64;100.00;100747.00;4850961;29;20033;-76
2021/06/22 12:12:59;;;;;;;7.63;4.90;;;;;;;31.72;100.00;100737.97;4851422;29;20053;-76
2021/06/22 12:15:44;;;;;;;6.97;4.80;;;;;;;31.62;100.00;100730.97;4865565;29;20428;-76
2021/06/22 12:18:33;;;;;;;8.88;5.32;;;;;;;31.74;100.00;100733.22;4867134;29;20037;-81
2021/06/22 12:21:20;;;;;;;10.60;5.30;;;;;;;32.12;100.00;100730.06;4864014;29;20033;-77
2021/06/22 12:24:12;;;;;;;6.75;4.88;;;;;;;31.95;100.00;100736.44;4866108;29;20526;-78
2021/06/22 12:26:57;;;;;;;6.43;5.20;;;;;;;31.42;100.00;100729.50;4864118;29;20063;-78
2021/06/22 12:29:43;;;;;;;7.60;5.47;;;;;;;31.50;100.00;100724.13;4864320;29;20037;-77
2021/06/22 12:32:54;;;;;;;10.02;6.00;;;;;;;31.38;100.00;100727.09;4864304;29;20474;-77
2021/06/22 12:35:43;;;;;;;8.05;5.70;;;;;;;31.55;100.00;100722.66;4865217;29;20025;-77
2021/06/22 12:38:29;;;;;;;5.72;5.10;;;;;;;31.65;100.00;100725.25;4838000;29;20067;-77
2021/06/22 12:41:25;;;;;;;9.93;5.85;;;;;;;31.50;100.00;100724.97;4865536;29;20044;-77
2021/06/22 12:44:11;;;;;;;7.95;5.47;;;;;;;31.54;100.00;100718.22;4864708;29;20081;-77
2021/06/22 12:47:03;;;;;;;6.50;5.18;;;;;;;32.05;100.00;100720.00;4863730;29;20108;-76
2021/06/22 12:49:53;;;;;;;6.35;5.38;;;;;;;32.11;100.00;100730.22;4864513;29;20033;-76
2021/06/22 12:52:39;;;;;;;6.85;5.35;;;;;;;31.95;100.00;100722.88;4863650;29;20089;-76
2021/06/22 12:55:51;;;;;;;9.23;5.85;;;;;;;30.97;100.00;100722.38;4864372;29;20116;-76
2021/06/22 12:58:53;;;;;;;9.70;5.95;;;;;;;31.51;100.00;100717.69;4864001;29;20348;-76
2021/06/22 13:01:42;;;;;;;7.50;5.03;;;;;;;31.84;100.00;100719.59;4864829;29;20030;-77
2021/06/22 13:04:39;;;;;;;9.18;5.72;;;;;;;32.30;100.00;100724.56;4848975;29;20112;-76
2021/06/22 13:07:28;;;;;;;6.05;5.32;;;;;;;31.54;100.00;100722.81;4863882;29;20124;-77
2021/06/22 13:10:14;;;;;;;13.73;5.60;;;;;;;31.78;100.00;100714.84;4863458;29;20121;-76
2021/06/22 13:13:05;;;;;;;6.93;5.70;;;;;;;31.83;100.00;100712.47;4866574;29;20491;-76
2021/06/22 13:16:09;;;;;;;7.13;5.53;;;;;;;32.59;100.00;100720.38;4863745;29;20147;-75
2021/06/22 13:19:05;;;;;;;9.13;5.50;;;;;;;32.47;100.00;100721.72;4864069;29;20025;-77
2021/06/22 13:21:53;;;;;;;6.93;5.03;;;;;;;32.10;100.00;100718.50;4863523;29;20037;-76
2021/06/22 13:24:45;;;;;;;6.97;5.78;;;;;;;32.38;100.00;100721.88;4864523;29;20046;-75
2021/06/22 13:27:43;;;;;;;10.23;6.20;;;;;;;32.69;98.79;100720.22;4864969;29;20044;-77
2021/06/22 13:30:32;;;;;;;6.63;5.80;;;;;;;32.77;98.22;100720.22;4866104;29;20025;-75
2021/06/22 13:33:20;;;;;;;8.35;6.00;;;;;;;31.77;100.00;100710.44;4865796;29;20030;-76
2021/06/22 13:36:06;;;;;;;7.60;5.65;;;;;;;32.32;100.00;100711.66;4865596;29;20053;-76
2021/06/22 13:39:10;;;;;;;10.23;6.38;;;;;;;32.13;100.00;100712.78;4863895;29;20033;-76
2021/06/22 13:41:59;;;;;;;10.93;5.82;;;;;;;32.11;100.00;100711.25;4865086;29;20371;-77
2021/06/22 13:44:49;;;;;;;8.45;6.60;;;;;;;31.19;100.00;100713.72;4862713;29;20104;-75
2021/06/22 13:47:41;;;;;;;8.20;6.22;;;;;;;31.66;100.00;100707.97;4864486;29;20033;-76
2021/06/22 13:50:27;;;;;;;9.30;6.78;;;;;;;31.54;100.00;100704.66;4863012;29;20025;-76
2021/06/22 13:53:25;;;;;;;8.55;6.60;;;;;;;32.20;100.00;100697.53;4850826;29;20050;-76
2021/06/22 13:56:14;;;;;;;8.98;6.57;;;;;;;32.08;100.00;100695.28;4865560;29;20030;-76